createdAt,value
2023-04-24T00:00:06.981Z,14.63
2023-04-24T00:02:34.511Z,14.96
2023-04-24T00:05:03.619Z,15.07
2023-04-24T00:07:31.268Z,15.25
2023-04-24T00:09:58.565Z,15.67
2023-04-24T00:12:26.146Z,16.04
2023-04-24T00:14:53.813Z,16.17
2023-04-24T00:17:21.763Z,16.19
2023-04-24T00:19:49.484Z,15.82
2023-04-24T00:22:16.871Z,15.51
2023-04-24T00:24:44.727Z,15.21
2023-04-24T00:27:11.864Z,14.74
2023-04-24T00:29:39.316Z,14.51
2023-04-24T00:32:06.749Z,14.41
2023-04-24T00:34:34.276Z,14.21
2023-04-24T00:37:01.720Z,13.98
2023-04-24T00:39:29.132Z,13.58
2023-04-24T00:41:56.114Z,12.97
2023-04-24T00:44:23.198Z,12.56
2023-04-24T00:46:55.538Z,12.34
2023-04-24T00:49:22.715Z,12.31
2023-04-24T00:51:51.955Z,12.42
2023-04-24T00:54:19.237Z,12.63
2023-04-24T00:56:46.519Z,12.97
2023-04-24T00:59:13.904Z,13.29
2023-04-24T01:01:44.847Z,13.64
2023-04-24T01:04:12.771Z,14.68
2023-04-24T01:06:40.787Z,15.77
2023-04-24T01:09:09.672Z,16.84
2023-04-24T01:11:37.167Z,17.99
2023-04-24T01:14:06.069Z,19.01
2023-04-24T01:16:33.215Z,19.76
2023-04-24T01:19:01.544Z,20.47
2023-04-24T01:21:29.731Z,20.90
2023-04-24T01:23:57.828Z,20.56
2023-04-24T01:26:26.166Z,20.31
2023-04-24T01:28:53.415Z,20.22
2023-04-24T01:31:20.597Z,20.21
2023-04-24T01:33:47.972Z,19.99
2023-04-24T01:36:15.322Z,19.72
2023-04-24T01:38:42.637Z,19.45
2023-04-24T01:41:10.235Z,19.11
2023-04-24T01:43:37.234Z,19.00
2023-04-24T01:46:04.701Z,19.07
2023-04-24T01:48:32.003Z,18.83
2023-04-24T01:50:59.118Z,18.65
2023-04-24T01:53:26.421Z,18.37
2023-04-24T01:55:54.074Z,18.25
2023-04-24T01:58:21.168Z,18.11
2023-04-24T02:00:48.615Z,18.04
2023-04-24T02:03:16.065Z,17.90
2023-04-24T02:05:46.365Z,17.81
2023-04-24T02:08:13.432Z,17.74
2023-04-24T02:10:40.659Z,17.72
2023-04-24T02:13:08.064Z,17.67
2023-04-24T02:15:37.071Z,17.74
2023-04-24T02:18:04.139Z,17.87
2023-04-24T02:20:34.682Z,17.92
2023-04-24T02:23:02.400Z,17.87
2023-04-24T02:25:29.504Z,17.95
2023-04-24T02:27:56.925Z,17.95
2023-04-24T02:30:23.970Z,17.89
2023-04-24T02:32:51.698Z,17.90
2023-04-24T02:35:18.934Z,18.00
2023-04-24T02:37:46.508Z,18.09
2023-04-24T02:40:13.582Z,18.36
2023-04-24T02:42:40.706Z,18.50
2023-04-24T02:45:08.889Z,18.44
2023-04-24T02:47:36.413Z,18.36
2023-04-24T02:50:04.107Z,18.54
2023-04-24T02:52:31.765Z,18.73
2023-04-24T02:54:58.740Z,18.82
2023-04-24T02:57:26.179Z,18.85
2023-04-24T02:59:54.709Z,18.99
2023-04-24T03:02:22.121Z,19.09
2023-04-24T03:04:49.471Z,19.14
2023-04-24T03:07:16.892Z,18.99
2023-04-24T03:09:44.813Z,19.04
2023-04-24T03:12:12.051Z,19.03
2023-04-24T03:14:40.329Z,19.12
2023-04-24T03:17:08.116Z,19.42
2023-04-24T03:19:35.107Z,19.76
2023-04-24T03:22:10.074Z,19.79
2023-04-24T03:24:38.873Z,19.83
2023-04-24T03:27:06.424Z,19.83
2023-04-24T03:29:58.430Z,20.14
2023-04-24T03:32:33.082Z,20.37
2023-04-24T03:35:01.388Z,20.44
2023-04-24T03:37:28.741Z,20.48
2023-04-24T03:40:19.038Z,20.48
2023-04-24T03:42:46.749Z,20.56
2023-04-24T03:45:13.861Z,20.75
2023-04-24T03:47:44.110Z,20.75
2023-04-24T03:50:13.043Z,20.68
2023-04-24T03:52:42.598Z,20.55
2023-04-24T03:55:13.998Z,20.48
2023-04-24T03:57:45.967Z,20.33
2023-04-24T04:00:21.745Z,20.50
2023-04-24T04:02:57.563Z,20.56
2023-04-24T04:05:25.392Z,20.75
2023-04-24T04:07:52.491Z,20.74
2023-04-24T04:10:20.103Z,20.86
2023-04-24T04:12:47.191Z,21.03
2023-04-24T04:15:14.904Z,20.93
2023-04-24T04:17:42.429Z,20.93
2023-04-24T04:20:11.162Z,20.94
2023-04-24T04:22:42.003Z,21.02
2023-04-24T04:25:12.394Z,21.14
2023-04-24T04:27:40.088Z,21.00
2023-04-24T04:30:11.533Z,20.85
2023-04-24T04:32:48.163Z,20.94
2023-04-24T04:35:15.767Z,20.96
2023-04-24T04:37:43.273Z,21.02
2023-04-24T04:40:30.818Z,20.96
2023-04-24T04:43:03.384Z,20.92
2023-04-24T04:45:36.376Z,20.94
2023-04-24T04:48:22.413Z,20.99
2023-04-24T04:50:51.043Z,21.13
2023-04-24T04:53:20.283Z,21.23
2023-04-24T04:55:47.739Z,21.44
2023-04-24T04:58:17.094Z,21.59
2023-04-24T05:00:45.683Z,21.77
2023-04-24T05:03:21.075Z,21.90
2023-04-24T05:05:55.332Z,21.84
2023-04-24T05:08:27.459Z,21.81
2023-04-24T05:10:55.774Z,21.85
2023-04-24T05:13:32.159Z,21.86
2023-04-24T05:16:11.215Z,21.85
2023-04-24T05:18:39.686Z,21.59
2023-04-24T05:21:08.743Z,21.71
2023-04-24T05:23:38.553Z,21.94
2023-04-24T05:26:07.723Z,21.88
2023-04-24T05:28:37.237Z,21.91
2023-04-24T05:31:08.755Z,21.86
2023-04-24T05:33:36.255Z,21.71
2023-04-24T05:36:03.977Z,21.77
2023-04-24T05:38:31.153Z,21.86
2023-04-24T05:40:58.930Z,22.06
2023-04-24T05:43:26.136Z,22.24
2023-04-24T05:45:54.218Z,22.36
2023-04-24T05:48:23.411Z,22.53
2023-04-24T05:50:51.462Z,22.47
2023-04-24T05:53:19.134Z,22.47
2023-04-24T05:55:46.312Z,22.21
2023-04-24T05:58:13.470Z,22.20
2023-04-24T06:00:43.230Z,22.32
2023-04-24T06:03:10.916Z,22.52
2023-04-24T06:05:38.228Z,22.52
2023-04-24T06:08:05.483Z,22.65
2023-04-24T06:10:36.872Z,22.81
2023-04-24T06:13:05.568Z,22.90
2023-04-24T06:15:34.712Z,23.04
2023-04-24T06:18:07.981Z,23.02
2023-04-24T06:20:36.800Z,22.87
2023-04-24T06:23:04.608Z,22.55
2023-04-24T06:25:33.776Z,22.21
2023-04-24T06:28:01.180Z,21.99
2023-04-24T06:30:30.764Z,21.71
2023-04-24T06:33:03.144Z,21.04
2023-04-24T06:35:39.066Z,20.48
2023-04-24T06:38:06.912Z,19.98
2023-04-24T06:40:34.281Z,19.68
2023-04-24T06:43:03.474Z,19.53
2023-04-24T06:45:30.868Z,19.36
2023-04-24T06:47:58.103Z,19.10
2023-04-24T06:50:26.143Z,18.96
2023-04-24T06:52:53.562Z,18.91
2023-04-24T06:55:20.632Z,18.77
2023-04-24T06:57:48.116Z,18.84
2023-04-24T07:00:16.538Z,18.96
2023-04-24T07:02:44.258Z,19.21
2023-04-24T07:05:13.363Z,19.44
2023-04-24T07:07:41.008Z,19.71
2023-04-24T07:10:09.305Z,20.00
2023-04-24T07:12:36.797Z,20.34
2023-04-24T07:15:04.713Z,20.51
2023-04-24T07:17:32.027Z,20.62
2023-04-24T07:19:59.480Z,20.76
2023-04-24T07:22:26.862Z,20.90
2023-04-24T07:24:54.371Z,21.12
2023-04-24T07:27:21.602Z,21.32
2023-04-24T07:29:49.173Z,21.58
2023-04-24T07:32:16.512Z,21.81
2023-04-24T07:34:43.559Z,22.14
2023-04-24T07:37:11.263Z,22.56
2023-04-24T07:39:38.365Z,22.89
2023-04-24T07:42:05.503Z,23.06
2023-04-24T07:44:32.901Z,23.22
2023-04-24T07:47:00.520Z,23.16
2023-04-24T07:49:28.889Z,22.71
2023-04-24T07:51:56.484Z,22.21
2023-04-24T07:54:24.119Z,21.81
2023-04-24T07:56:51.485Z,21.50
2023-04-24T07:59:21.628Z,21.33
2023-04-24T08:01:48.880Z,21.40
2023-04-24T08:04:16.814Z,21.49
2023-04-24T08:06:44.336Z,21.41
2023-04-24T08:09:11.434Z,21.40
2023-04-24T08:11:38.550Z,21.38
2023-04-24T08:14:05.858Z,21.51
2023-04-24T08:16:34.142Z,21.88
2023-04-24T08:19:01.562Z,22.17
2023-04-24T08:21:28.863Z,22.23
2023-04-24T08:23:56.207Z,21.92
2023-04-24T08:26:23.552Z,21.54
2023-04-24T08:28:50.712Z,21.18
2023-04-24T08:31:18.005Z,20.96
2023-04-24T08:33:46.872Z,20.69
2023-04-24T08:36:14.072Z,20.39
2023-04-24T08:38:43.135Z,19.99
2023-04-24T08:41:10.943Z,19.68
2023-04-24T08:43:38.213Z,19.47
2023-04-24T08:46:09.082Z,19.33
2023-04-24T08:48:39.295Z,19.22
2023-04-24T08:51:07.841Z,19.05
2023-04-24T08:56:03.414Z,18.72
2023-04-24T08:58:31.376Z,18.58
2023-04-24T09:00:59.245Z,18.40
2023-04-24T09:03:28.219Z,18.27
2023-04-24T09:05:55.922Z,18.18
2023-04-24T09:08:25.275Z,18.09
2023-04-24T09:10:52.653Z,18.02
2023-04-24T09:13:20.815Z,18.01
2023-04-24T09:15:48.222Z,17.98
2023-04-24T09:18:15.502Z,17.97
2023-04-24T09:20:59.516Z,18.02
2023-04-24T09:23:29.227Z,18.03
2023-04-24T09:25:56.844Z,18.01
2023-04-24T09:28:31.328Z,17.98
2023-04-24T09:31:16.407Z,17.97
2023-04-24T09:34:05.788Z,18.03
2023-04-24T09:36:38.422Z,18.03
2023-04-24T09:39:12.529Z,18.03
2023-04-24T09:41:52.635Z,18.00
2023-04-24T09:44:23.552Z,18.00
2023-04-24T09:46:52.496Z,17.98
2023-04-24T09:49:30.349Z,17.98
2023-04-24T09:52:08.185Z,17.99
2023-04-24T09:54:37.586Z,18.01
2023-04-24T09:57:05.130Z,18.04
2023-04-24T09:59:32.512Z,18.04
2023-04-24T10:02:00.587Z,18.02
2023-04-24T10:04:29.240Z,18.00
2023-04-24T10:06:57.292Z,17.98
2023-04-24T10:09:27.330Z,17.92
2023-04-24T10:11:55.485Z,17.88
2023-04-24T10:14:24.233Z,17.89
2023-04-24T10:16:53.976Z,17.93
2023-04-24T10:19:21.626Z,18.01
2023-04-24T10:21:49.115Z,18.08
2023-04-24T10:24:17.648Z,18.16
2023-04-24T10:26:45.998Z,18.26
2023-04-24T10:29:14.021Z,18.33
2023-04-24T10:31:42.252Z,18.35
2023-04-24T10:34:10.373Z,18.36
2023-04-24T10:36:46.077Z,18.35
2023-04-24T10:39:14.132Z,18.27
2023-04-24T10:41:41.109Z,18.22
2023-04-24T10:44:09.329Z,18.16
2023-04-24T10:46:37.174Z,18.09
2023-04-24T10:49:08.509Z,18.02
2023-04-24T10:51:53.960Z,17.99
2023-04-24T10:54:38.122Z,18.01
2023-04-24T10:57:21.265Z,18.07
2023-04-24T10:59:49.127Z,18.10
2023-04-24T11:02:16.338Z,18.12
2023-04-24T11:04:44.039Z,18.22
2023-04-24T11:07:11.978Z,18.37
2023-04-24T11:09:41.153Z,18.54
2023-04-24T11:12:12.566Z,18.73
2023-04-24T11:14:58.699Z,18.90
2023-04-24T11:17:38.616Z,18.97
2023-04-24T11:20:26.785Z,19.00
2023-04-24T11:22:56.693Z,18.98
2023-04-24T11:25:24.121Z,18.94
2023-04-24T11:27:51.766Z,18.89
2023-04-24T11:30:19.590Z,18.80
2023-04-24T11:32:51.411Z,18.70
2023-04-24T11:35:20.348Z,18.60
2023-04-24T11:40:28.870Z,18.37
2023-04-24T11:42:56.779Z,18.20
2023-04-24T11:45:25.820Z,18.06
2023-04-24T11:47:53.324Z,17.95
2023-04-24T11:50:26.501Z,17.88
2023-04-24T11:52:54.202Z,17.82
2023-04-24T11:55:21.831Z,17.77
2023-04-24T11:57:59.310Z,17.68
2023-04-24T12:00:31.271Z,17.65
2023-04-24T12:03:11.531Z,17.60
2023-04-24T12:05:40.066Z,17.53
2023-04-24T12:08:07.772Z,17.48
2023-04-24T12:10:35.539Z,17.43
2023-04-24T12:13:02.958Z,17.43
2023-04-24T12:15:30.190Z,17.40
2023-04-24T12:17:57.957Z,17.33
2023-04-24T12:20:29.962Z,17.29
2023-04-24T12:22:58.085Z,17.21
2023-04-24T12:25:32.708Z,17.08
2023-04-24T12:28:06.333Z,16.96
2023-04-24T12:30:35.123Z,16.83
2023-04-24T12:33:03.890Z,16.71
2023-04-24T12:35:36.331Z,16.66
2023-04-24T12:38:14.535Z,16.56
2023-04-24T12:40:42.632Z,16.50
2023-04-24T12:43:17.869Z,16.46
2023-04-24T12:45:48.388Z,16.42
2023-04-24T12:48:15.977Z,16.40
2023-04-24T12:50:46.047Z,16.34
2023-04-24T12:53:14.861Z,16.28
2023-04-24T12:55:42.486Z,16.23
2023-04-24T12:58:10.134Z,16.18
2023-04-24T13:00:38.467Z,16.13
2023-04-24T13:03:05.935Z,16.07
2023-04-24T13:05:33.114Z,16.00
2023-04-24T13:08:00.534Z,15.92
2023-04-24T13:10:27.871Z,15.80
2023-04-24T13:12:55.062Z,15.72
2023-04-24T13:15:22.336Z,15.61
2023-04-24T13:17:50.147Z,15.52
2023-04-24T13:20:18.037Z,15.41
2023-04-24T13:22:45.504Z,15.34
2023-04-24T13:25:13.083Z,15.24
2023-04-24T13:27:40.645Z,15.21
2023-04-24T13:30:08.453Z,15.24
2023-04-24T13:32:36.414Z,15.31
2023-04-24T13:35:04.404Z,15.38
2023-04-24T13:37:32.906Z,15.45
2023-04-24T13:40:00.134Z,15.47
2023-04-24T13:42:27.572Z,15.48
2023-04-24T13:44:54.843Z,15.55
2023-04-24T13:47:22.251Z,15.57
2023-04-24T13:49:49.798Z,15.60
2023-04-24T13:52:17.428Z,15.61
2023-04-24T13:54:44.410Z,15.61
2023-04-24T13:57:12.195Z,15.60
2023-04-24T13:59:39.392Z,15.61
2023-04-24T14:02:06.553Z,15.61
2023-04-24T14:04:34.212Z,15.60
2023-04-24T14:07:01.457Z,15.61
2023-04-24T14:09:28.922Z,15.65
2023-04-24T14:11:56.238Z,15.64
2023-04-24T14:14:23.665Z,15.65
2023-04-24T14:16:51.023Z,15.63
2023-04-24T14:19:18.530Z,15.60
2023-04-24T14:21:45.820Z,15.59
2023-04-24T14:24:13.346Z,15.59
2023-04-24T14:26:40.638Z,15.56
2023-04-24T14:29:14.836Z,15.53
2023-04-24T14:31:43.018Z,15.47
2023-04-24T14:34:10.521Z,15.42
2023-04-24T14:36:37.705Z,15.37
2023-04-24T14:39:07.428Z,15.32
2023-04-24T14:41:38.314Z,15.24
2023-04-24T14:44:05.988Z,15.17
2023-04-24T14:46:33.410Z,15.11
2023-04-24T14:49:01.137Z,15.06
2023-04-24T14:51:28.449Z,15.02
2023-04-24T14:53:55.665Z,14.94
2023-04-24T14:56:23.852Z,14.89
2023-04-24T14:58:51.158Z,14.87
2023-04-24T15:01:19.137Z,14.86
2023-04-24T15:03:47.004Z,14.83
2023-04-24T15:06:14.718Z,14.80
2023-04-24T15:08:42.866Z,14.74
2023-04-24T15:11:10.735Z,14.67
2023-04-24T15:13:37.741Z,14.60
2023-04-24T15:16:06.039Z,14.57
2023-04-24T15:18:33.813Z,14.48
2023-04-24T15:21:02.644Z,14.41
2023-04-24T15:23:29.764Z,14.35
2023-04-24T15:25:57.618Z,14.31
2023-04-24T15:28:25.799Z,14.24
2023-04-24T15:30:52.743Z,14.17
2023-04-24T15:33:20.353Z,14.08
2023-04-24T15:35:49.406Z,14.00
2023-04-24T15:38:16.946Z,13.92
2023-04-24T15:40:45.634Z,13.82
2023-04-24T15:43:12.978Z,13.70
2023-04-24T15:45:40.537Z,13.57
2023-04-24T15:48:07.885Z,13.43
2023-04-24T15:50:35.022Z,13.35
2023-04-24T15:53:02.150Z,13.28
2023-04-24T15:55:29.525Z,13.19
2023-04-24T15:57:57.440Z,13.08
2023-04-24T16:00:24.963Z,12.99
2023-04-24T16:02:52.828Z,12.91
2023-04-24T16:05:20.384Z,12.84
2023-04-24T16:07:47.487Z,12.77
2023-04-24T16:10:14.862Z,12.72
2023-04-24T16:12:42.008Z,12.65
2023-04-24T16:15:10.478Z,12.58
2023-04-24T16:17:37.699Z,12.56
2023-04-24T16:20:05.387Z,12.55
2023-04-24T16:22:32.339Z,12.56
2023-04-24T16:24:59.969Z,12.54
2023-04-24T16:27:27.013Z,12.51
2023-04-24T16:29:54.879Z,12.45
2023-04-24T16:32:23.934Z,12.41
2023-04-24T16:34:51.638Z,12.39
2023-04-24T16:37:19.152Z,12.36
2023-04-24T16:39:46.377Z,12.33
2023-04-24T16:42:14.355Z,12.28
2023-04-24T16:44:42.185Z,12.22
2023-04-24T16:47:10.300Z,12.20
2023-04-24T16:49:37.621Z,12.17
2023-04-24T16:52:04.962Z,12.11
2023-04-24T16:54:35.294Z,12.11
2023-04-24T16:57:03.233Z,12.15
2023-04-24T16:59:33.960Z,12.23
2023-04-24T17:02:01.365Z,12.28
2023-04-24T17:04:29.362Z,12.38
2023-04-24T17:06:56.823Z,12.45
2023-04-24T17:09:24.190Z,12.47
2023-04-24T17:11:51.601Z,12.46
2023-04-24T17:14:19.049Z,12.43
2023-04-24T17:16:46.306Z,12.43
2023-04-24T17:19:13.881Z,12.35
2023-04-24T17:21:41.156Z,12.32
2023-04-24T17:24:08.342Z,12.30
2023-04-24T17:26:35.712Z,12.27
2023-04-24T17:29:03.319Z,12.27
2023-04-24T17:31:30.708Z,12.28
2023-04-24T17:33:59.006Z,12.24
2023-04-24T17:36:26.060Z,12.23
2023-04-24T17:38:53.450Z,12.27
2023-04-24T17:41:21.234Z,12.29
2023-04-24T17:43:48.565Z,12.30
2023-04-24T17:46:15.922Z,12.36
2023-04-24T17:48:43.196Z,12.40
2023-04-24T17:51:10.542Z,12.44
2023-04-24T17:53:37.920Z,12.46
2023-04-24T17:56:05.675Z,12.49
2023-04-24T17:58:34.577Z,12.46
2023-04-24T18:01:02.758Z,12.37
2023-04-24T18:03:30.311Z,12.35
2023-04-24T18:05:57.958Z,12.27
2023-04-24T18:08:25.398Z,12.28
2023-04-24T18:10:52.283Z,12.29
2023-04-24T18:13:19.896Z,12.31
2023-04-24T18:15:47.227Z,12.33
2023-04-24T18:18:15.070Z,12.25
2023-04-24T18:20:42.034Z,12.23
2023-04-24T18:23:09.129Z,12.25
2023-04-24T18:25:36.673Z,12.30
2023-04-24T18:28:04.101Z,12.36
2023-04-24T18:30:32.146Z,12.40
2023-04-24T18:33:00.067Z,12.42
2023-04-24T18:35:27.541Z,12.44
2023-04-24T18:37:54.896Z,12.45
2023-04-24T18:40:22.259Z,12.43
2023-04-24T18:42:50.034Z,12.40
2023-04-24T18:45:16.990Z,12.37
2023-04-24T18:47:44.517Z,12.37
2023-04-24T18:50:12.223Z,12.29
2023-04-24T18:52:39.754Z,12.29
2023-04-24T18:55:07.358Z,12.27
2023-04-24T18:57:34.998Z,12.25
2023-04-24T19:00:02.481Z,12.26
2023-04-24T19:02:29.820Z,12.22
2023-04-24T19:04:57.080Z,12.19
2023-04-24T19:07:24.678Z,12.16
2023-04-24T19:09:51.969Z,12.11
2023-04-24T19:12:20.991Z,12.10
2023-04-24T19:14:51.941Z,12.10
2023-04-24T19:17:24.748Z,12.10
2023-04-24T19:19:52.196Z,12.13
2023-04-24T19:22:20.621Z,12.13
2023-04-24T19:24:48.024Z,12.15
2023-04-24T19:27:15.193Z,12.16
2023-04-24T19:29:43.035Z,12.17
2023-04-24T19:32:10.595Z,12.19
2023-04-24T19:34:40.473Z,12.21
2023-04-24T19:37:07.932Z,12.23
2023-04-24T19:39:35.339Z,12.28
2023-04-24T19:42:06.685Z,12.29
2023-04-24T19:44:35.020Z,12.30
2023-04-24T19:47:02.346Z,12.30
2023-04-24T19:49:29.360Z,12.29
2023-04-24T19:51:57.006Z,12.27
2023-04-24T19:54:24.548Z,12.23
2023-04-24T19:56:51.931Z,12.23
2023-04-24T19:59:19.309Z,12.20
2023-04-24T20:01:46.629Z,12.20
2023-04-24T20:04:14.459Z,12.22
2023-04-24T20:06:41.948Z,12.23
2023-04-24T20:09:09.670Z,12.25
2023-04-24T20:11:36.657Z,12.26
2023-04-24T20:14:03.956Z,12.28
2023-04-24T20:16:31.427Z,12.28
2023-04-24T20:18:59.437Z,12.28
2023-04-24T20:21:27.605Z,12.29
2023-04-24T20:23:54.732Z,12.25
2023-04-24T20:26:21.881Z,12.22
2023-04-24T20:28:49.666Z,12.15
2023-04-24T20:31:17.292Z,12.11
2023-04-24T20:33:45.672Z,12.06
2023-04-24T20:36:13.058Z,11.96
2023-04-24T20:38:40.133Z,11.86
2023-04-24T20:41:10.037Z,11.78
2023-04-24T20:43:37.264Z,11.67
2023-04-24T20:46:04.397Z,11.59
2023-04-24T20:48:31.831Z,11.52
2023-04-24T20:50:59.003Z,11.40
2023-04-24T20:53:26.069Z,11.33
2023-04-24T20:55:53.140Z,11.29
2023-04-24T20:58:23.600Z,11.20
2023-04-24T21:00:51.506Z,11.16
2023-04-24T21:03:19.582Z,11.13
2023-04-24T21:05:46.729Z,11.10
2023-04-24T21:08:13.793Z,11.10
2023-04-24T21:10:41.465Z,11.15
2023-04-24T21:13:08.695Z,11.16
2023-04-24T21:15:36.077Z,11.19
2023-04-24T21:18:03.313Z,11.20
2023-04-24T21:20:30.584Z,11.21
2023-04-24T21:22:57.723Z,11.22
2023-04-24T21:25:24.707Z,11.20
2023-04-24T21:27:52.082Z,11.19
2023-04-24T21:30:22.035Z,11.22
2023-04-24T21:32:49.383Z,11.30
2023-04-24T21:35:16.723Z,11.38
2023-04-24T21:37:44.136Z,11.47
2023-04-24T21:40:11.231Z,11.49
2023-04-24T21:42:39.143Z,11.49
2023-04-24T21:45:07.104Z,11.50
2023-04-24T21:47:34.480Z,11.51
2023-04-24T21:50:01.948Z,11.50
2023-04-24T21:52:29.247Z,11.50
2023-04-24T21:54:56.453Z,11.50
2023-04-24T21:57:24.084Z,11.49
2023-04-24T21:59:51.528Z,11.46
2023-04-24T22:02:18.811Z,11.45
2023-04-24T22:04:46.346Z,11.43
2023-04-24T22:07:13.591Z,11.40
2023-04-24T22:09:40.973Z,11.37
2023-04-24T22:12:08.328Z,11.34
2023-04-24T22:14:35.608Z,11.33
2023-04-24T22:17:02.958Z,11.39
2023-04-24T22:19:30.807Z,11.44
2023-04-24T22:21:58.118Z,11.51
2023-04-24T22:24:25.373Z,11.53
2023-04-24T22:26:52.910Z,11.57
2023-04-24T22:29:20.206Z,11.60
2023-04-24T22:31:47.191Z,11.59
2023-04-24T22:34:16.785Z,11.59
2023-04-24T22:36:43.852Z,11.55
2023-04-24T22:39:15.857Z,11.54
2023-04-24T22:41:43.145Z,11.53
2023-04-24T22:44:10.781Z,11.52
2023-04-24T22:46:38.325Z,11.50
2023-04-24T22:49:05.733Z,11.51
2023-04-24T22:51:33.250Z,11.51
2023-04-24T22:54:02.624Z,11.46
2023-04-24T22:56:30.102Z,11.46
2023-04-24T22:58:58.305Z,11.45
2023-04-24T23:01:28.356Z,11.45
2023-04-24T23:03:56.373Z,11.43
2023-04-24T23:06:23.872Z,11.44
2023-04-24T23:08:51.199Z,11.46
2023-04-24T23:11:19.885Z,11.47
2023-04-24T23:13:47.208Z,11.47
2023-04-24T23:16:14.826Z,11.48
2023-04-24T23:18:42.416Z,11.49
2023-04-24T23:21:09.408Z,11.53
2023-04-24T23:23:36.764Z,11.55
2023-04-24T23:26:04.307Z,11.55
2023-04-24T23:28:31.539Z,11.53
2023-04-24T23:30:58.865Z,11.55
2023-04-24T23:33:27.981Z,11.50
2023-04-24T23:35:55.727Z,11.50
2023-04-24T23:38:22.760Z,11.55
2023-04-24T23:40:53.326Z,11.61
2023-04-24T23:43:20.666Z,11.61
2023-04-24T23:45:48.058Z,11.62
2023-04-24T23:48:15.178Z,11.62
2023-04-24T23:50:43.559Z,11.66
2023-04-24T23:53:10.714Z,11.69
2023-04-24T23:55:38.330Z,11.69
2023-04-24T23:58:05.733Z,11.70
